首页
METAR-TAF:

METAR-TAF

机场 :

Alpnach, 瑞士

纬度: 46-56-19N, 经度: 8-17-03E, 海拔: 440米

当前天气观测

该预报发布于18分钟前的02:20 UTC
静风
温度 3°C
湿度 93%
气压 1008 hPa
能見度: 9000
多云层高于1700英尺
阴天层高于2400英尺

METAR: LSMA 170220Z AUTO 00000KT 9000NDV BKN017 OVC024 03/02 Q1008 RMK

时间: 03:38 (02:38 UTC)


TAF: 丢失

超过4000个机场的气象观测和天气预报(METAR&TAF报告)。

可查询的气象台以黄色和红色小点在地图上表示。

将鼠标移到小点上方,可查看气象台名称。

然后点击查看天气观测和预报。

如需切换地图:点击带黑十字的绿色按钮放大地图;点击带横线的绿色按钮缩小地图;或者点击绿色箭头查看邻近地区的地图。


METAR-TAF: